createdAt,value
2017-12-10T00:01:20.852Z,80.60
2017-12-10T00:03:50.552Z,80.60
2017-12-10T00:06:18.538Z,80.40
2017-12-10T00:08:46.101Z,80.20
2017-12-10T00:11:13.621Z,80.00
2017-12-10T00:13:41.171Z,80.00
2017-12-10T00:16:08.717Z,79.80
2017-12-10T00:18:36.233Z,80.00
2017-12-10T00:21:03.789Z,79.50
2017-12-10T00:23:31.323Z,79.60
2017-12-10T00:25:59.745Z,79.30
2017-12-10T00:28:27.347Z,79.30
2017-12-10T00:30:55.756Z,79.40
2017-12-10T00:33:23.381Z,79.40
2017-12-10T00:35:50.997Z,79.90
2017-12-10T00:38:18.961Z,79.40
2017-12-10T00:40:46.541Z,78.50
2017-12-10T00:43:14.844Z,78.60
2017-12-10T00:45:43.150Z,78.50
2017-12-10T00:48:10.678Z,78.40
2017-12-10T00:50:39.087Z,78.00
2017-12-10T00:53:06.675Z,78.00
2017-12-10T00:55:34.332Z,78.90
2017-12-10T00:58:01.920Z,78.60
2017-12-10T01:00:32.108Z,79.70
2017-12-10T01:03:00.276Z,79.70
2017-12-10T01:05:28.489Z,79.40
2017-12-10T01:07:56.092Z,79.60
2017-12-10T01:10:23.616Z,79.50
2017-12-10T01:12:51.140Z,79.60
2017-12-10T01:15:18.693Z,79.50
2017-12-10T01:17:46.225Z,79.20
2017-12-10T01:20:13.744Z,79.20
2017-12-10T01:22:41.308Z,78.80
2017-12-10T01:25:08.845Z,78.80
2017-12-10T01:27:36.770Z,79.20
2017-12-10T01:30:04.468Z,79.60
2017-12-10T01:32:32.222Z,79.40
2017-12-10T01:35:00.153Z,79.10
2017-12-10T01:37:27.908Z,78.90
2017-12-10T01:39:55.482Z,78.70
2017-12-10T01:42:23.771Z,78.90
2017-12-10T01:44:52.112Z,79.70
2017-12-10T01:47:19.635Z,79.20
2017-12-10T01:49:47.161Z,79.00
2017-12-10T01:52:15.492Z,79.70
2017-12-10T01:54:43.025Z,79.70
2017-12-10T01:57:10.585Z,79.90
2017-12-10T01:59:38.472Z,79.90
2017-12-10T02:02:07.036Z,79.90
2017-12-10T02:04:34.913Z,79.80
2017-12-10T02:07:04.552Z,79.70
2017-12-10T02:09:32.901Z,79.50
2017-12-10T02:12:03.215Z,79.20
2017-12-10T02:14:31.501Z,79.30
2017-12-10T02:16:59.881Z,79.50
2017-12-10T02:19:27.874Z,79.10
2017-12-10T02:21:56.442Z,79.30
2017-12-10T02:24:24.010Z,79.30
2017-12-10T02:26:51.553Z,79.40
2017-12-10T02:29:19.148Z,80.90
2017-12-10T02:31:46.632Z,81.50
2017-12-10T02:34:14.153Z,81.70
2017-12-10T02:36:41.712Z,81.40
2017-12-10T02:39:09.997Z,81.70
2017-12-10T02:41:37.766Z,82.00
2017-12-10T02:44:05.341Z,81.80
2017-12-10T02:46:32.948Z,81.50
2017-12-10T02:49:00.833Z,81.40
2017-12-10T02:51:28.607Z,82.50
2017-12-10T02:53:56.189Z,81.90
2017-12-10T02:56:23.742Z,82.80
2017-12-10T02:58:51.280Z,82.50
2017-12-10T03:01:18.829Z,82.70
2017-12-10T03:03:46.384Z,82.50
2017-12-10T03:06:13.906Z,82.40
2017-12-10T03:08:42.946Z,82.70
2017-12-10T03:11:10.470Z,82.70
2017-12-10T03:13:38.757Z,82.00
2017-12-10T03:16:07.073Z,82.10
2017-12-10T03:18:34.667Z,82.10
2017-12-10T03:21:02.317Z,81.40
2017-12-10T03:23:30.928Z,80.40
2017-12-10T03:26:00.686Z,81.10
2017-12-10T03:28:29.177Z,81.10
2017-12-10T03:30:57.761Z,80.10
2017-12-10T03:33:26.508Z,80.10
2017-12-10T03:35:54.790Z,79.50
2017-12-10T03:38:23.128Z,79.00
2017-12-10T03:40:50.657Z,79.00
2017-12-10T03:43:18.228Z,78.90
2017-12-10T03:45:45.917Z,78.70
2017-12-10T03:48:14.498Z,78.30
2017-12-10T03:50:42.095Z,78.40
2017-12-10T03:53:10.204Z,78.50
2017-12-10T03:55:37.868Z,78.30
2017-12-10T03:58:06.229Z,77.50
2017-12-10T04:00:33.813Z,78.20
2017-12-10T04:03:01.338Z,77.40
2017-12-10T04:05:29.637Z,77.10
2017-12-10T04:07:57.153Z,77.10
2017-12-10T04:10:24.699Z,77.10
2017-12-10T04:12:52.275Z,77.10
2017-12-10T04:15:19.866Z,77.30
2017-12-10T04:17:48.228Z,77.40
2017-12-10T04:20:15.750Z,77.40
2017-12-10T04:22:43.283Z,77.40
2017-12-10T04:25:10.801Z,77.90
2017-12-10T04:27:38.335Z,77.90
2017-12-10T04:30:06.625Z,77.10
2017-12-10T04:32:35.020Z,77.40
2017-12-10T04:35:04.434Z,77.40
2017-12-10T04:37:32.102Z,77.20
2017-12-10T04:40:00.562Z,77.50
2017-12-10T04:42:28.339Z,77.50
2017-12-10T04:44:56.445Z,77.80
2017-12-10T04:47:25.113Z,78.20
2017-12-10T04:49:54.998Z,77.60
2017-12-10T04:52:22.718Z,77.50
2017-12-10T04:54:50.298Z,77.50
2017-12-10T04:57:17.821Z,77.50
2017-12-10T04:59:45.370Z,77.50
2017-12-10T05:02:12.881Z,77.90
2017-12-10T05:04:41.226Z,78.20
2017-12-10T05:07:08.769Z,78.30
2017-12-10T05:09:36.293Z,78.60
2017-12-10T05:12:03.921Z,78.70
2017-12-10T05:14:32.335Z,78.40
2017-12-10T05:16:59.911Z,78.40
2017-12-10T05:19:28.003Z,78.20
2017-12-10T05:21:56.194Z,78.20
2017-12-10T05:24:24.559Z,77.90
2017-12-10T05:26:52.099Z,77.80
2017-12-10T05:29:19.697Z,78.00
2017-12-10T05:31:47.218Z,77.80
2017-12-10T05:34:14.754Z,78.10
2017-12-10T05:36:43.035Z,78.00
2017-12-10T05:39:11.341Z,77.90
2017-12-10T05:41:38.853Z,77.70
2017-12-10T05:44:06.394Z,77.50
2017-12-10T05:46:34.156Z,77.10
2017-12-10T05:49:02.003Z,77.50
2017-12-10T05:51:29.736Z,77.50
2017-12-10T05:53:58.558Z,77.40
2017-12-10T05:56:26.662Z,77.40
2017-12-10T05:58:56.385Z,77.20
2017-12-10T06:01:24.757Z,77.20
2017-12-10T06:03:52.585Z,76.80
2017-12-10T06:06:21.053Z,76.90
2017-12-10T06:08:48.632Z,76.90
2017-12-10T06:11:16.153Z,77.10
2017-12-10T06:13:44.470Z,76.80
2017-12-10T06:16:11.985Z,76.80
2017-12-10T06:18:40.269Z,77.10
2017-12-10T06:21:08.574Z,77.40
2017-12-10T06:23:37.014Z,77.50
2017-12-10T06:26:04.640Z,77.10
2017-12-10T06:28:32.227Z,77.30
2017-12-10T06:31:00.588Z,76.80
2017-12-10T06:33:29.023Z,76.40
2017-12-10T06:35:56.659Z,76.50
2017-12-10T06:38:24.681Z,76.60
2017-12-10T06:40:52.342Z,77.00
2017-12-10T06:43:21.615Z,76.50
2017-12-10T06:45:49.133Z,76.50
2017-12-10T06:48:16.670Z,76.30
2017-12-10T06:50:44.195Z,76.60
2017-12-10T06:53:12.489Z,76.50
2017-12-10T06:55:40.006Z,76.40
2017-12-10T06:58:08.361Z,76.50
2017-12-10T07:00:35.953Z,76.30
2017-12-10T07:03:04.579Z,76.30
2017-12-10T07:05:32.155Z,76.30
2017-12-10T07:07:59.904Z,76.40
2017-12-10T07:10:28.128Z,76.50
2017-12-10T07:12:58.973Z,75.80
2017-12-10T07:15:28.015Z,75.90
2017-12-10T07:17:56.491Z,75.80
2017-12-10T07:20:27.945Z,75.30
2017-12-10T07:22:56.523Z,74.70
2017-12-10T07:25:24.723Z,75.00
2017-12-10T07:27:53.096Z,75.50
2017-12-10T07:30:20.713Z,75.50
2017-12-10T07:32:48.276Z,75.20
2017-12-10T07:35:16.558Z,75.00
2017-12-10T07:37:44.870Z,74.70
2017-12-10T07:40:12.397Z,74.60
2017-12-10T07:42:40.727Z,74.30
2017-12-10T07:45:08.251Z,74.30
2017-12-10T07:47:35.933Z,73.90
2017-12-10T07:50:03.592Z,73.50
2017-12-10T07:52:31.382Z,73.50
2017-12-10T07:54:59.298Z,73.70
2017-12-10T07:57:27.302Z,72.60
2017-12-10T07:59:56.193Z,72.90
2017-12-10T08:02:25.178Z,72.00
2017-12-10T08:04:53.062Z,72.00
2017-12-10T08:07:20.603Z,71.70
2017-12-10T08:09:48.145Z,72.00
2017-12-10T08:12:16.437Z,71.30
2017-12-10T08:14:43.948Z,71.20
2017-12-10T08:17:13.021Z,70.30
2017-12-10T08:19:40.561Z,70.30
2017-12-10T08:22:08.133Z,70.40
2017-12-10T08:24:35.705Z,69.20
2017-12-10T08:27:03.657Z,70.00
2017-12-10T08:29:31.354Z,69.50
2017-12-10T08:31:59.904Z,69.20
2017-12-10T08:34:29.410Z,69.40
2017-12-10T08:36:57.347Z,68.70
2017-12-10T08:39:25.655Z,68.70
2017-12-10T08:41:54.752Z,69.90
2017-12-10T08:44:23.683Z,69.60
2017-12-10T08:46:51.993Z,70.40
2017-12-10T08:49:20.330Z,70.60
2017-12-10T08:51:47.846Z,70.60
2017-12-10T08:54:15.393Z,70.00
2017-12-10T08:56:42.978Z,69.80
2017-12-10T08:59:10.518Z,70.10
2017-12-10T09:01:38.168Z,71.10
2017-12-10T09:04:06.498Z,71.20
2017-12-10T09:06:34.337Z,71.30
2017-12-10T09:09:01.946Z,70.90
2017-12-10T09:11:29.776Z,70.30
2017-12-10T09:13:57.954Z,70.80
2017-12-10T09:16:25.715Z,71.70
2017-12-10T09:18:54.094Z,72.10
2017-12-10T09:21:22.588Z,73.40
2017-12-10T09:23:50.350Z,73.40
2017-12-10T09:26:17.901Z,74.30
2017-12-10T09:28:45.454Z,75.00
2017-12-10T09:31:13.021Z,75.70
2017-12-10T09:33:40.543Z,77.30
2017-12-10T09:36:08.860Z,80.10
2017-12-10T09:38:36.693Z,80.10
2017-12-10T09:41:05.175Z,82.30
2017-12-10T09:43:32.869Z,82.30
2017-12-10T09:46:00.636Z,83.30
2017-12-10T09:48:28.645Z,83.70
2017-12-10T09:50:57.696Z,83.90
2017-12-10T09:53:26.063Z,83.80
2017-12-10T09:55:53.829Z,83.70
2017-12-10T09:58:22.362Z,84.70
2017-12-10T10:00:49.974Z,84.70
2017-12-10T10:03:17.567Z,84.80
2017-12-10T10:05:45.100Z,85.00
2017-12-10T10:08:12.628Z,85.10
2017-12-10T10:10:40.944Z,85.70
2017-12-10T10:13:08.475Z,85.70
2017-12-10T10:15:36.081Z,85.90
2017-12-10T10:18:03.810Z,86.20
2017-12-10T10:20:31.414Z,87.50
2017-12-10T10:22:59.021Z,87.90
2017-12-10T10:25:27.703Z,88.20
2017-12-10T10:27:56.461Z,88.40
2017-12-10T10:30:25.796Z,89.10
2017-12-10T10:32:54.312Z,89.00
2017-12-10T10:35:23.319Z,89.30
2017-12-10T10:37:51.706Z,89.70
2017-12-10T10:40:19.277Z,89.30
2017-12-10T10:42:46.803Z,89.30
2017-12-10T10:45:14.381Z,89.20
2017-12-10T10:47:41.910Z,89.20
2017-12-10T10:50:09.477Z,89.70
2017-12-10T10:52:37.013Z,89.90
2017-12-10T10:55:04.535Z,90.00
2017-12-10T10:57:32.072Z,90.00
2017-12-10T11:00:00.359Z,90.00
2017-12-10T11:02:28.312Z,90.00
2017-12-10T11:04:56.662Z,90.20
2017-12-10T11:07:25.041Z,90.30
2017-12-10T11:09:52.580Z,90.30
2017-12-10T11:12:20.866Z,90.40
2017-12-10T11:14:49.183Z,90.20
2017-12-10T11:17:16.714Z,90.20
2017-12-10T11:19:44.268Z,90.20
2017-12-10T11:22:11.806Z,90.20
2017-12-10T11:24:39.345Z,90.30
2017-12-10T11:27:06.967Z,90.40
2017-12-10T11:29:34.557Z,90.20
2017-12-10T11:32:03.243Z,90.40
2017-12-10T11:34:31.409Z,90.30
2017-12-10T11:36:59.168Z,90.40
2017-12-10T11:39:26.930Z,90.40
2017-12-10T11:41:54.460Z,90.20
2017-12-10T11:44:21.981Z,90.20
2017-12-10T11:46:49.549Z,90.20
2017-12-10T11:49:18.668Z,90.30
2017-12-10T11:51:46.984Z,90.20
2017-12-10T11:54:14.520Z,90.20
2017-12-10T11:56:42.072Z,90.00
2017-12-10T11:59:10.101Z,90.00
2017-12-10T12:01:40.032Z,89.70
2017-12-10T12:04:08.584Z,89.80
2017-12-10T12:06:37.265Z,89.60
2017-12-10T12:09:07.189Z,88.90
2017-12-10T12:11:34.938Z,88.80
2017-12-10T12:14:02.783Z,88.90
2017-12-10T12:16:30.322Z,88.70
2017-12-10T12:18:59.525Z,88.10
2017-12-10T12:21:27.871Z,88.50
2017-12-10T12:23:55.462Z,88.50
2017-12-10T12:26:23.752Z,88.80
2017-12-10T12:28:52.068Z,87.90
2017-12-10T12:31:20.500Z,87.80
2017-12-10T12:33:48.900Z,86.00
2017-12-10T12:36:16.441Z,86.00
2017-12-10T12:38:44.874Z,84.70
2017-12-10T12:41:12.466Z,84.50
2017-12-10T12:43:40.998Z,84.20
2017-12-10T12:46:08.895Z,83.80
2017-12-10T12:48:36.659Z,83.50
2017-12-10T12:51:04.231Z,84.00
2017-12-10T12:53:31.750Z,83.70
2017-12-10T12:55:59.415Z,83.70
2017-12-10T12:58:26.948Z,83.30
2017-12-10T13:00:55.330Z,83.00
2017-12-10T13:03:23.645Z,82.50
2017-12-10T13:05:51.161Z,82.50
2017-12-10T13:08:19.467Z,81.90
2017-12-10T13:10:46.988Z,81.80
2017-12-10T13:13:14.606Z,82.50
2017-12-10T13:15:42.802Z,82.70
2017-12-10T13:18:10.741Z,82.70
2017-12-10T13:20:38.481Z,82.50
2017-12-10T13:23:07.112Z,81.90
2017-12-10T13:25:34.740Z,81.90
2017-12-10T13:28:02.261Z,81.80
2017-12-10T13:30:29.796Z,81.70
2017-12-10T13:32:57.318Z,81.50
2017-12-10T13:35:24.883Z,81.30
2017-12-10T13:37:52.427Z,80.70
2017-12-10T13:40:20.080Z,81.00
2017-12-10T13:42:48.395Z,80.90
2017-12-10T13:45:15.950Z,81.50
2017-12-10T13:47:43.596Z,81.30
2017-12-10T13:50:11.333Z,82.00
2017-12-10T13:52:40.132Z,82.20
2017-12-10T13:55:08.182Z,82.20
2017-12-10T13:57:35.777Z,81.80
2017-12-10T14:00:03.444Z,82.20
2017-12-10T14:02:30.968Z,82.40
2017-12-10T14:04:59.763Z,82.60
2017-12-10T14:07:27.291Z,83.10
2017-12-10T14:09:54.848Z,82.80
2017-12-10T14:12:22.373Z,82.80
2017-12-10T14:14:49.893Z,83.30
2017-12-10T14:17:17.512Z,83.00
2017-12-10T14:19:45.145Z,83.50
2017-12-10T14:22:12.934Z,83.50
2017-12-10T14:24:40.641Z,83.70
2017-12-10T14:27:08.683Z,83.30
2017-12-10T14:29:36.324Z,82.80
2017-12-10T14:32:03.879Z,83.30
2017-12-10T14:34:31.968Z,82.30
2017-12-10T14:36:59.489Z,82.10
2017-12-10T14:39:27.861Z,82.10
2017-12-10T14:41:56.190Z,81.30
2017-12-10T14:44:23.754Z,81.20
2017-12-10T14:46:51.286Z,81.20
2017-12-10T14:49:18.814Z,80.80
2017-12-10T14:51:47.271Z,81.00
2017-12-10T14:54:14.864Z,81.00
2017-12-10T14:56:42.447Z,80.50
2017-12-10T14:59:10.118Z,80.10
2017-12-10T15:01:37.834Z,80.20
2017-12-10T15:04:06.783Z,82.10
2017-12-10T15:06:34.306Z,82.00
2017-12-10T15:09:02.605Z,82.00
2017-12-10T15:11:30.128Z,82.10
2017-12-10T15:13:57.700Z,82.50
2017-12-10T15:16:25.989Z,82.00
2017-12-10T15:18:54.272Z,81.80
2017-12-10T15:21:21.822Z,81.70
2017-12-10T15:23:50.114Z,80.70
2017-12-10T15:26:17.758Z,80.70
2017-12-10T15:28:46.142Z,80.50
2017-12-10T15:31:13.792Z,80.40
2017-12-10T15:33:42.165Z,80.20
2017-12-10T15:36:09.801Z,80.20
2017-12-10T15:38:38.461Z,79.10
2017-12-10T15:41:06.956Z,79.00
2017-12-10T15:43:34.527Z,78.40
2017-12-10T15:46:02.102Z,78.00
2017-12-10T15:48:29.708Z,77.50
2017-12-10T15:50:57.306Z,77.10
2017-12-10T15:53:25.731Z,77.20
2017-12-10T15:55:55.073Z,77.60
2017-12-10T15:58:22.635Z,77.50
2017-12-10T16:00:50.181Z,76.60
2017-12-10T16:03:17.733Z,76.10
2017-12-10T16:05:46.552Z,75.70
2017-12-10T16:08:14.271Z,75.40
2017-12-10T16:10:41.864Z,75.20
2017-12-10T16:13:09.729Z,74.40
2017-12-10T16:15:37.331Z,74.90
2017-12-10T16:18:04.983Z,75.00
2017-12-10T16:20:32.834Z,75.00
2017-12-10T16:23:00.347Z,74.10
2017-12-10T16:25:28.762Z,73.10
2017-12-10T16:27:56.283Z,73.10
2017-12-10T16:30:24.587Z,73.50
2017-12-10T16:32:52.271Z,73.30
2017-12-10T16:35:19.965Z,73.70
2017-12-10T16:37:47.880Z,73.80
2017-12-10T16:40:16.022Z,73.80
2017-12-10T16:42:44.520Z,74.20
2017-12-10T16:45:12.974Z,74.10
2017-12-10T16:47:40.690Z,74.10
2017-12-10T16:50:08.341Z,73.40
2017-12-10T16:52:36.015Z,73.00
2017-12-10T16:55:03.570Z,73.00
2017-12-10T16:57:31.096Z,72.60
2017-12-10T16:59:59.405Z,73.50
2017-12-10T17:02:26.975Z,73.50
2017-12-10T17:04:54.725Z,73.50
2017-12-10T17:07:22.299Z,73.50
2017-12-10T17:09:49.910Z,73.60
2017-12-10T17:12:17.482Z,73.20
2017-12-10T17:14:45.985Z,74.40
2017-12-10T17:17:13.680Z,73.70
2017-12-10T17:19:41.345Z,75.70
2017-12-10T17:22:09.247Z,76.20
2017-12-10T17:24:39.412Z,75.60
2017-12-10T17:27:07.392Z,75.60
2017-12-10T17:29:34.984Z,74.80
2017-12-10T17:32:02.516Z,74.00
2017-12-10T17:34:30.068Z,73.90
2017-12-10T17:36:57.649Z,74.50
2017-12-10T17:39:25.223Z,74.20
2017-12-10T17:41:52.748Z,74.00
2017-12-10T17:44:20.290Z,73.50
2017-12-10T17:46:47.835Z,74.10
2017-12-10T17:49:16.165Z,72.80
2017-12-10T17:51:43.758Z,72.70
2017-12-10T17:54:12.160Z,73.20
2017-12-10T17:56:40.129Z,73.20
2017-12-10T17:59:07.837Z,73.70
2017-12-10T18:01:35.386Z,75.50
2017-12-10T18:04:02.912Z,75.30
2017-12-10T18:06:31.204Z,74.50
2017-12-10T18:08:58.776Z,73.90
2017-12-10T18:11:26.295Z,74.10
2017-12-10T18:13:58.729Z,74.80
2017-12-10T18:16:26.251Z,74.20
2017-12-10T18:18:53.847Z,73.70
2017-12-10T18:21:21.406Z,73.80
2017-12-10T18:23:48.980Z,74.60
2017-12-10T18:26:16.550Z,75.50
2017-12-10T18:28:44.338Z,76.20
2017-12-10T18:31:11.893Z,76.60
2017-12-10T18:33:41.754Z,78.10
2017-12-10T18:36:09.452Z,78.10
2017-12-10T18:38:37.050Z,79.40
2017-12-10T18:41:04.704Z,80.30
2017-12-10T18:43:33.021Z,80.60
2017-12-10T18:46:00.593Z,80.50
2017-12-10T18:48:28.150Z,79.80
2017-12-10T18:50:55.674Z,79.20
2017-12-10T18:53:23.222Z,78.70
2017-12-10T18:55:51.637Z,77.80
2017-12-10T18:58:19.173Z,77.70
2017-12-10T19:00:47.028Z,77.60
2017-12-10T19:03:15.432Z,78.00
2017-12-10T19:05:42.993Z,78.40
2017-12-10T19:08:10.680Z,78.10
2017-12-10T19:10:38.568Z,77.40
2017-12-10T19:13:07.833Z,78.20
2017-12-10T19:15:35.418Z,77.90
2017-12-10T19:18:02.964Z,78.40
2017-12-10T19:20:30.560Z,78.50
2017-12-10T19:22:58.088Z,78.00
2017-12-10T19:25:25.714Z,77.90
2017-12-10T19:27:53.237Z,78.10
2017-12-10T19:30:20.845Z,78.40
2017-12-10T19:32:48.406Z,78.70
2017-12-10T19:35:16.018Z,79.30
2017-12-10T19:37:43.948Z,79.70
2017-12-10T19:40:11.602Z,79.30
2017-12-10T19:42:39.532Z,79.30
2017-12-10T19:45:07.558Z,79.40
2017-12-10T19:47:35.725Z,80.00
2017-12-10T19:50:03.305Z,81.10
2017-12-10T19:52:30.938Z,81.80
2017-12-10T19:54:58.474Z,82.60
2017-12-10T19:57:26.049Z,83.70
2017-12-10T19:59:53.778Z,83.30
2017-12-10T20:02:21.426Z,83.80
2017-12-10T20:04:49.003Z,84.10
2017-12-10T20:07:16.562Z,83.20
2017-12-10T20:09:45.836Z,80.30
2017-12-10T20:12:14.122Z,80.30
2017-12-10T20:14:42.263Z,80.00
2017-12-10T20:17:10.656Z,80.30
2017-12-10T20:19:38.578Z,80.80
2017-12-10T20:22:06.987Z,81.70
2017-12-10T20:24:34.529Z,81.70
2017-12-10T20:27:02.212Z,82.40
2017-12-10T20:32:03.951Z,81.30
2017-12-10T20:34:32.239Z,78.60
2017-12-10T20:37:00.577Z,78.20
2017-12-10T20:39:28.193Z,78.30
2017-12-10T20:41:55.770Z,79.40
2017-12-10T20:44:24.281Z,80.60
2017-12-10T20:46:52.102Z,81.20
2017-12-10T20:49:19.654Z,82.70
2017-12-10T20:51:47.268Z,85.00
2017-12-10T20:54:14.918Z,87.50
2017-12-10T20:56:42.972Z,88.10
2017-12-10T20:59:11.165Z,89.70
2017-12-10T21:01:39.818Z,89.80
2017-12-10T21:04:08.654Z,90.20
2017-12-10T21:06:37.988Z,90.70
2017-12-10T21:09:05.693Z,90.70
2017-12-10T21:11:34.379Z,90.50
2017-12-10T21:14:01.917Z,90.50
2017-12-10T21:16:30.398Z,90.60
2017-12-10T21:18:58.247Z,89.90
2017-12-10T21:21:26.559Z,88.60
2017-12-10T21:23:54.229Z,88.60
2017-12-10T21:26:21.794Z,89.20
2017-12-10T21:28:49.400Z,89.50
2017-12-10T21:31:17.269Z,87.50
2017-12-10T21:33:45.909Z,87.40
2017-12-10T21:36:13.769Z,87.80
2017-12-10T21:38:41.842Z,88.60
2017-12-10T21:41:10.509Z,89.20
2017-12-10T21:43:39.031Z,89.20
2017-12-10T21:46:07.216Z,89.40
2017-12-10T21:48:35.740Z,89.00
2017-12-10T21:51:03.314Z,89.00
2017-12-10T21:53:30.861Z,89.10
2017-12-10T21:55:58.443Z,89.50
2017-12-10T21:58:26.013Z,89.20
2017-12-10T22:00:53.557Z,89.20
2017-12-10T22:03:21.094Z,89.40
2017-12-10T22:05:49.438Z,89.20
2017-12-10T22:08:17.507Z,89.20
2017-12-10T22:10:45.255Z,89.30
2017-12-10T22:13:13.038Z,89.10
2017-12-10T22:15:42.387Z,89.00
2017-12-10T22:18:11.186Z,89.00
2017-12-10T22:20:40.133Z,88.80
2017-12-10T22:23:09.288Z,87.50
2017-12-10T22:25:37.400Z,88.60
2017-12-10T22:28:05.021Z,88.20
2017-12-10T22:30:32.534Z,87.90
2017-12-10T22:33:00.054Z,88.70
2017-12-10T22:35:27.987Z,89.40
2017-12-10T22:37:55.519Z,89.30
2017-12-10T22:40:23.081Z,89.30
2017-12-10T22:42:50.835Z,89.50
2017-12-10T22:45:19.217Z,89.80
2017-12-10T22:47:47.597Z,90.10
2017-12-10T22:50:16.151Z,90.00
2017-12-10T22:52:43.814Z,90.00
2017-12-10T22:55:12.666Z,89.60
2017-12-10T22:57:40.566Z,89.40
2017-12-10T23:00:08.946Z,89.00
2017-12-10T23:02:36.659Z,89.00
2017-12-10T23:05:04.269Z,89.40
2017-12-10T23:07:31.810Z,89.70
2017-12-10T23:09:59.465Z,89.70
2017-12-10T23:12:26.994Z,89.50
2017-12-10T23:14:54.535Z,90.00
2017-12-10T23:17:22.073Z,90.10
2017-12-10T23:19:49.730Z,90.00
2017-12-10T23:22:17.478Z,90.10
2017-12-10T23:24:45.157Z,89.60
2017-12-10T23:27:13.001Z,89.80
2017-12-10T23:29:41.597Z,90.10
2017-12-10T23:32:10.018Z,89.90
2017-12-10T23:34:38.273Z,90.10
2017-12-10T23:37:06.100Z,89.90
2017-12-10T23:39:33.772Z,90.00
2017-12-10T23:42:02.080Z,90.10
2017-12-10T23:44:31.366Z,90.40
2017-12-10T23:46:58.911Z,90.20
2017-12-10T23:49:27.206Z,90.30
2017-12-10T23:51:54.731Z,90.30
2017-12-10T23:54:22.269Z,90.30
2017-12-10T23:56:50.594Z,90.10
2017-12-10T23:59:18.302Z,90.10
